Air Quality Table

TIMESTAMP NO2 O3 PM2.5 TEMP HUM AIRPRES WS WD NO
2021-08-04 08:00 8.51 ug/m3 92.8 ug/m3 22.94 ug/m3 31.93 C 41.03 % 1,001.46 mbar 2.41 m/s 216.53 Deg 1.06 ug/m3
2021-08-04 07:00 19.12 ug/m3 90.49 ug/m3 18.91 ug/m3 29.47 C 54.88 % 1,001.27 mbar 1.76 m/s 216.53 Deg 1.45 ug/m3
2021-08-04 06:00 17.19 ug/m3 83.27 ug/m3 16.85 ug/m3 27.43 C 70.39 % 1,001.16 mbar 1 m/s 204.84 Deg 0.49 ug/m3
2021-08-04 05:00 7.48 ug/m3 94.56 ug/m3 17.97 ug/m3 27.1 C 77.03 % 1,001.17 mbar 1.17 m/s 188.87 Deg 0.11 ug/m3
2021-08-04 04:00 4.23 ug/m3 90.69 ug/m3 17.38 ug/m3 26.95 C 81.56 % 1,001.18 mbar 1.3 m/s 159.2 Deg 0.04 ug/m3
2021-08-04 03:00 5.62 ug/m3 90.07 ug/m3 16.13 ug/m3 26.86 C 85.36 % 1,001.38 mbar 1.45 m/s 167 Deg 0.21 ug/m3
2021-08-04 02:00 6.07 ug/m3 88.05 ug/m3 15.7 ug/m3 27.02 C 86.33 % 1,001.68 mbar 1.47 m/s 175.42 Deg 0.02 ug/m3
2021-08-04 01:00 5.32 ug/m3 93.26 ug/m3 16.87 ug/m3 27.35 C 86.67 % 1,002.30 mbar 1.35 m/s 179.22 Deg 0.05 ug/m3
2021-08-04 00:00 10.14 ug/m3 98.98 ug/m3 18.35 ug/m3 28.08 C 80.08 % 1,002.74 mbar 1.72 m/s 157.03 Deg -0.01 ug/m3
2021-08-03 23:00 14.39 ug/m3 90.15 ug/m3 17.12 ug/m3 28.46 C 70.77 % 1,002.92 mbar 1.6 m/s 156.62 Deg 0 ug/m3
2021-08-03 22:00 19.95 ug/m3 86.31 ug/m3 17.87 ug/m3 28.75 C 69.37 % 1,003.01 mbar 1.06 m/s 178.97 Deg 0.04 ug/m3
2021-08-03 21:00 21.63 ug/m3 96.8 ug/m3 17.65 ug/m3 29.42 C 66.22 % 1,002.75 mbar 1.49 m/s 173.58 Deg 0.02 ug/m3
2021-08-03 20:00 17.84 ug/m3 102.23 ug/m3 17.19 ug/m3 30.2 C 58.03 % 1,002.22 mbar 1.82 m/s 180 Deg 0.22 ug/m3
2021-08-03 19:00 20.8 ug/m3 100.27 ug/m3 16.27 ug/m3 31.43 C 52.06 % 1,001.82 mbar 1.4 m/s 169.14 Deg 0.43 ug/m3
2021-08-03 18:00 19.59 ug/m3 99.33 ug/m3 17.78 ug/m3 31.83 C 54.1 % 1,001.55 mbar 1.79 m/s 138.47 Deg 1.12 ug/m3
2021-08-03 17:00 9.1 ug/m3 112.81 ug/m3 17.04 ug/m3 32.25 C 51.26 % 1,001.60 mbar 2.06 m/s 212.7 Deg 0.76 ug/m3
2021-08-03 16:00 7.66 ug/m3 104.77 ug/m3 15.89 ug/m3 32.95 C 49.34 % 1,001.74 mbar 2.33 m/s 211 Deg 0.96 ug/m3
2021-08-03 15:00 10.99 ug/m3 98.85 ug/m3 21.33 ug/m3 33.91 C 47.96 % 1,001.70 mbar 2.05 m/s 214 Deg 1.53 ug/m3
2021-08-03 14:00 12.67 ug/m3 90.29 ug/m3 16.91 ug/m3 35.35 C 36.26 % 1,001.96 mbar 1.97 m/s 276.03 Deg 0.9 ug/m3
2021-08-03 13:00 7.41 ug/m3 99.93 ug/m3 16.53 ug/m3 34.33 C 41.28 % 1,002.34 mbar 1.83 m/s 183.97 Deg 0.69 ug/m3
2021-08-03 12:00 7.49 ug/m3 99.28 ug/m3 23.09 ug/m3 33.15 C 51.39 % 1,002.58 mbar 2.01 m/s 15.5 Deg 0.88 ug/m3
2021-08-03 11:00 17.41 ug/m3 96.93 ug/m3 26.04 ug/m3 33.59 C 53.04 % 1,002.40 mbar 2.42 m/s 75.97 Deg 2.34 ug/m3
2021-08-03 10:00 25.37 ug/m3 83.29 ug/m3 24.57 ug/m3 33.06 C 58.07 % 1,002.01 mbar 0.92 m/s 254.58 Deg 4.24 ug/m3

It is to be noted that the data is provisional and subject to quality assurance procedures. For validated data kindly refer your request to contact.air@era.org.mt